Time;durP1;ratioP1;P1;durP2;ratioP2;P2;SDS_P1;SDS_P2;PMS_P1;PMS_P2;Temp;Humidity;BMP_temperature;BMP_pressure;BME280_temperature;BME280_humidity;BME280_pressure;Samples;Min_cycle;Max_cycle;Signal;HPM_P1;HPM_P2
2023/10/28 00:00:58;;;;;;;0.60;0.60;;;;;;;;;;5020525;28;20573;-82
2023/10/28 00:03:25;;;;;;;0.50;0.50;;;;;;;;;;5020485;28;20665;-80
2023/10/28 00:05:51;;;;;;;0.50;0.50;;;;;;;;;;5019439;28;20201;-82
2023/10/28 00:08:17;;;;;;;0.50;0.50;;;;;;;;;;5019679;28;20572;-83
2023/10/28 00:10:44;;;;;;;0.50;0.50;;;;;;;;;;5020556;28;20198;-85
2023/10/28 00:13:11;;;;;;;0.70;0.70;;;;;;;;;;5019024;28;20260;-82
2023/10/28 00:15:38;;;;;;;0.60;0.60;;;;;;;;;;5021020;28;20196;-83
2023/10/28 00:18:04;;;;;;;0.50;0.50;;;;;;;;;;5022512;28;20192;-83
2023/10/28 00:20:31;;;;;;;0.60;0.60;;;;;;;;;;5027588;28;20219;-79
2023/10/28 00:23:03;;;;;;;0.50;0.50;;;;;;;;;;5031008;28;20235;-80
2023/10/28 00:25:31;;;;;;;0.60;0.60;;;;;;;;;;5029390;28;20200;-80
2023/10/28 00:27:57;;;;;;;0.50;0.50;;;;;;;;;;5030824;28;20184;-79
2023/10/28 00:30:24;;;;;;;0.60;0.60;;;;;;;;;;5025422;28;20180;-83
2023/10/28 00:32:50;;;;;;;0.60;0.60;;;;;;;;;;5018698;28;20269;-82
2023/10/28 00:35:16;;;;;;;0.50;0.50;;;;;;;;;;5019314;28;20207;-81
2023/10/28 00:37:42;;;;;;;0.60;0.60;;;;;;;;;;5020718;28;20176;-81
2023/10/28 00:40:08;;;;;;;0.60;0.60;;;;;;;;;;5019826;28;20185;-80
2023/10/28 00:42:38;;;;;;;0.70;0.70;;;;;;;;;;5020030;28;20176;-80
2023/10/28 00:45:06;;;;;;;0.60;0.60;;;;;;;;;;5021495;28;20197;-82
2023/10/28 00:47:35;;;;;;;0.60;0.60;;;;;;;;;;5019515;28;20192;-81
2023/10/28 00:50:05;;;;;;;0.63;0.63;;;;;;;;;;5024876;28;20662;-81
2023/10/28 00:52:31;;;;;;;0.47;0.47;;;;;;;;;;5031064;28;20203;-79
2023/10/28 00:54:57;;;;;;;0.70;0.70;;;;;;;;;;5032763;28;20241;-80
2023/10/28 00:57:24;;;;;;;0.50;0.50;;;;;;;;;;5028908;28;20189;-81
2023/10/28 00:59:50;;;;;;;0.60;0.60;;;;;;;;;;5028081;28;20188;-83
2023/10/28 01:02:17;;;;;;;0.70;0.70;;;;;;;;;;5028193;28;20267;-81
2023/10/28 01:04:43;;;;;;;0.60;0.60;;;;;;;;;;5029595;28;20184;-82
2023/10/28 01:07:09;;;;;;;0.60;0.60;;;;;;;;;;5029716;28;20204;-81
2023/10/28 01:09:45;;;;;;;0.60;0.60;;;;;;;;;;5030511;28;20184;-81
2023/10/28 01:12:13;;;;;;;0.60;0.60;;;;;;;;;;5024169;28;20263;-82
2023/10/28 01:14:39;;;;;;;0.53;0.53;;;;;;;;;;5017396;28;20176;-84
2023/10/28 01:17:06;;;;;;;0.53;0.53;;;;;;;;;;5019171;28;20646;-84
2023/10/28 01:19:34;;;;;;;0.60;0.60;;;;;;;;;;5019020;28;20188;-84
2023/10/28 01:22:00;;;;;;;0.50;0.50;;;;;;;;;;5018000;28;20239;-83
2023/10/28 01:24:28;;;;;;;0.50;0.50;;;;;;;;;;5018740;28;20177;-83
2023/10/28 01:26:54;;;;;;;0.60;0.60;;;;;;;;;;5018697;28;20209;-82
2023/10/28 01:29:22;;;;;;;0.60;0.60;;;;;;;;;;5019145;28;20250;-83
2023/10/28 01:31:48;;;;;;;0.70;0.70;;;;;;;;;;5018801;28;20177;-83
2023/10/28 01:34:14;;;;;;;0.70;0.70;;;;;;;;;;5017846;28;20181;-84
2023/10/28 01:36:42;;;;;;;0.70;0.70;;;;;;;;;;5018204;28;20577;-84
2023/10/28 01:39:08;;;;;;;0.50;0.50;;;;;;;;;;5019731;28;20180;-82
2023/10/28 01:41:34;;;;;;;0.70;0.70;;;;;;;;;;5017828;28;20255;-82
2023/10/28 01:44:00;;;;;;;0.63;0.63;;;;;;;;;;5017225;28;20172;-83
2023/10/28 01:46:29;;;;;;;0.60;0.60;;;;;;;;;;5016657;28;20203;-84
2023/10/28 01:48:55;;;;;;;0.70;0.70;;;;;;;;;;5018074;28;20181;-82
2023/10/28 01:51:20;;;;;;;0.60;0.60;;;;;;;;;;5023166;28;20323;-84
2023/10/28 01:53:46;;;;;;;0.70;0.70;;;;;;;;;;5027667;28;20187;-83
2023/10/28 01:56:12;;;;;;;0.60;0.60;;;;;;;;;;5022800;28;20204;-82
2023/10/28 01:58:38;;;;;;;0.50;0.50;;;;;;;;;;5021441;28;20236;-82
2023/10/28 02:01:04;;;;;;;0.70;0.70;;;;;;;;;;5021928;28;20228;-81
2023/10/28 02:03:30;;;;;;;0.70;0.70;;;;;;;;;;5020908;28;20554;-81
2023/10/28 02:05:56;;;;;;;0.60;0.60;;;;;;;;;;5020405;28;20292;-82
2023/10/28 02:08:22;;;;;;;0.67;0.67;;;;;;;;;;5023244;28;20188;-80
2023/10/28 02:10:48;;;;;;;0.70;0.70;;;;;;;;;;5027558;28;20191;-80
2023/10/28 02:13:14;;;;;;;0.70;0.70;;;;;;;;;;5025149;28;20252;-83
2023/10/28 02:15:42;;;;;;;0.60;0.60;;;;;;;;;;5023079;28;20188;-82
2023/10/28 02:18:09;;;;;;;0.70;0.70;;;;;;;;;;5024027;28;20172;-80
2023/10/28 02:20:36;;;;;;;0.60;0.60;;;;;;;;;;5023445;28;20258;-82
2023/10/28 02:23:02;;;;;;;0.70;0.70;;;;;;;;;;5024026;28;20504;-80
2023/10/28 02:25:28;;;;;;;0.70;0.70;;;;;;;;;;5022387;28;20234;-83
2023/10/28 02:27:54;;;;;;;0.57;0.57;;;;;;;;;;5021492;28;20187;-84
2023/10/28 02:30:20;;;;;;;0.70;0.70;;;;;;;;;;5021944;28;20188;-83
2023/10/28 02:32:46;;;;;;;0.53;0.53;;;;;;;;;;5021135;28;20177;-82
2023/10/28 02:35:13;;;;;;;0.70;0.70;;;;;;;;;;5022056;28;20629;-82
2023/10/28 02:37:39;;;;;;;0.67;0.67;;;;;;;;;;5020983;28;20180;-84
2023/10/28 02:40:06;;;;;;;0.70;0.70;;;;;;;;;;5021724;28;20177;-81
2023/10/28 02:42:32;;;;;;;0.60;0.60;;;;;;;;;;5022067;28;20183;-82
2023/10/28 02:44:58;;;;;;;0.70;0.70;;;;;;;;;;5029050;28;20192;-79
2023/10/28 02:47:24;;;;;;;0.57;0.57;;;;;;;;;;5032273;28;20212;-80
2023/10/28 02:49:50;;;;;;;0.70;0.70;;;;;;;;;;5031548;28;20195;-78
2023/10/28 02:52:16;;;;;;;0.60;0.60;;;;;;;;;;5031855;28;20177;-80
2023/10/28 02:54:43;;;;;;;0.60;0.60;;;;;;;;;;5022361;28;20525;-83
2023/10/28 02:57:10;;;;;;;0.60;0.60;;;;;;;;;;5020135;28;20276;-83
2023/10/28 02:59:36;;;;;;;0.70;0.70;;;;;;;;;;5020038;28;20537;-80
2023/10/28 03:02:02;;;;;;;0.60;0.60;;;;;;;;;;5019555;28;20202;-80
2023/10/28 03:04:27;;;;;;;0.70;0.70;;;;;;;;;;5020629;28;20184;-83
2023/10/28 03:06:53;;;;;;;0.60;0.60;;;;;;;;;;5021038;28;20287;-83
2023/10/28 03:09:19;;;;;;;0.63;0.63;;;;;;;;;;5020528;28;20200;-83
2023/10/28 03:11:45;;;;;;;0.50;0.50;;;;;;;;;;5020741;28;20180;-82
2023/10/28 03:14:12;;;;;;;0.70;0.70;;;;;;;;;;5021430;28;20195;-79
2023/10/28 03:16:39;;;;;;;0.70;0.70;;;;;;;;;;5021230;28;20251;-82
2023/10/28 03:19:05;;;;;;;0.63;0.63;;;;;;;;;;5021299;28;20180;-82
2023/10/28 03:21:31;;;;;;;0.60;0.60;;;;;;;;;;5021151;28;20246;-82
2023/10/28 03:23:57;;;;;;;0.70;0.70;;;;;;;;;;5021557;28;20176;-83
2023/10/28 03:26:23;;;;;;;0.60;0.60;;;;;;;;;;5020900;28;20208;-83
2023/10/28 03:28:49;;;;;;;0.70;0.70;;;;;;;;;;5021803;28;20591;-83
2023/10/28 03:31:15;;;;;;;0.60;0.60;;;;;;;;;;5021700;28;20190;-82
2023/10/28 03:33:42;;;;;;;0.63;0.63;;;;;;;;;;5023221;28;20252;-82
2023/10/28 03:36:11;;;;;;;0.70;0.70;;;;;;;;;;5022090;28;20193;-83
2023/10/28 03:38:38;;;;;;;0.70;0.70;;;;;;;;;;5028990;28;20189;-81
2023/10/28 03:41:07;;;;;;;0.70;0.70;;;;;;;;;;5035149;28;20215;-79
2023/10/28 03:43:33;;;;;;;0.70;0.70;;;;;;;;;;5027272;28;20253;-82
2023/10/28 03:45:59;;;;;;;0.60;0.60;;;;;;;;;;5020863;28;20235;-82
2023/10/28 03:48:26;;;;;;;0.70;0.70;;;;;;;;;;5022959;28;20180;-83
2023/10/28 03:51:05;;;;;;;0.60;0.60;;;;;;;;;;5022706;28;20177;-84
2023/10/28 03:53:31;;;;;;;0.60;0.60;;;;;;;;;;5023045;28;20177;-83
2023/10/28 03:55:58;;;;;;;0.60;0.60;;;;;;;;;;5024063;28;20242;-82
2023/10/28 03:58:24;;;;;;;0.60;0.60;;;;;;;;;;5032087;28;20161;-81
2023/10/28 04:00:53;;;;;;;0.70;0.70;;;;;;;;;;5032962;28;20247;-79
2023/10/28 04:03:20;;;;;;;0.60;0.60;;;;;;;;;;5032894;28;20169;-79
2023/10/28 04:05:47;;;;;;;0.70;0.70;;;;;;;;;;5032771;28;20192;-80
2023/10/28 04:08:13;;;;;;;0.50;0.50;;;;;;;;;;5034530;28;20280;-79
2023/10/28 04:10:39;;;;;;;0.70;0.70;;;;;;;;;;5034556;28;20180;-79
2023/10/28 04:13:06;;;;;;;0.60;0.60;;;;;;;;;;5034083;28;20176;-79
2023/10/28 04:15:32;;;;;;;0.60;0.60;;;;;;;;;;5033580;28;20204;-82
2023/10/28 04:17:58;;;;;;;0.60;0.60;;;;;;;;;;5024343;28;20180;-84
2023/10/28 04:20:25;;;;;;;0.60;0.60;;;;;;;;;;5018816;28;20192;-83
2023/10/28 04:22:51;;;;;;;0.60;0.60;;;;;;;;;;5019412;28;20180;-82
2023/10/28 04:25:17;;;;;;;0.60;0.60;;;;;;;;;;5018545;28;20208;-81
2023/10/28 04:27:43;;;;;;;0.60;0.60;;;;;;;;;;5019199;28;20172;-84
2023/10/28 04:30:10;;;;;;;0.60;0.60;;;;;;;;;;5019326;28;20382;-84
2023/10/28 04:32:37;;;;;;;0.63;0.63;;;;;;;;;;5019506;28;20778;-83
2023/10/28 04:35:03;;;;;;;0.60;0.60;;;;;;;;;;5017494;28;20708;-84
2023/10/28 04:37:29;;;;;;;0.60;0.60;;;;;;;;;;5019416;28;20168;-83
2023/10/28 04:39:56;;;;;;;0.60;0.60;;;;;;;;;;5019235;28;20299;-84
2023/10/28 04:42:21;;;;;;;0.80;0.80;;;;;;;;;;5019435;28;20693;-83
2023/10/28 04:44:48;;;;;;;0.60;0.60;;;;;;;;;;5018229;28;20191;-84
2023/10/28 04:47:13;;;;;;;0.60;0.60;;;;;;;;;;5019982;28;20177;-82
2023/10/28 04:49:41;;;;;;;0.60;0.60;;;;;;;;;;5025717;28;20208;-82
2023/10/28 04:52:08;;;;;;;0.60;0.60;;;;;;;;;;5029903;28;20184;-83
2023/10/28 04:54:34;;;;;;;0.60;0.60;;;;;;;;;;5030648;28;20251;-82
2023/10/28 04:57:00;;;;;;;0.70;0.70;;;;;;;;;;5035116;28;20175;-80
2023/10/28 04:59:29;;;;;;;0.50;0.50;;;;;;;;;;5036287;28;20169;-81
2023/10/28 05:01:55;;;;;;;0.60;0.60;;;;;;;;;;5025464;28;20241;-82
2023/10/28 05:04:23;;;;;;;0.80;0.80;;;;;;;;;;5028300;28;20244;-81
2023/10/28 05:06:49;;;;;;;0.70;0.70;;;;;;;;;;5031718;28;20275;-79
2023/10/28 05:09:15;;;;;;;0.70;0.70;;;;;;;;;;5032304;28;20181;-80
2023/10/28 05:11:42;;;;;;;0.80;0.80;;;;;;;;;;5030936;28;20203;-79
2023/10/28 05:14:11;;;;;;;0.50;0.50;;;;;;;;;;5028974;28;20176;-82
2023/10/28 05:16:37;;;;;;;0.60;0.60;;;;;;;;;;5019021;28;20208;-83
2023/10/28 05:19:03;;;;;;;0.50;0.50;;;;;;;;;;5019094;28;20183;-81
2023/10/28 05:21:29;;;;;;;0.70;0.70;;;;;;;;;;5019576;28;20204;-83
2023/10/28 05:23:56;;;;;;;0.63;0.63;;;;;;;;;;5020262;28;20176;-82
2023/10/28 05:26:22;;;;;;;0.60;0.60;;;;;;;;;;5027376;28;20185;-80
2023/10/28 05:28:47;;;;;;;0.60;0.60;;;;;;;;;;5037356;28;20181;-80
2023/10/28 05:31:14;;;;;;;0.70;0.70;;;;;;;;;;5029828;28;20270;-82
2023/10/28 05:33:40;;;;;;;0.60;0.60;;;;;;;;;;5020054;28;20187;-81
2023/10/28 05:36:06;;;;;;;0.70;0.70;;;;;;;;;;5020894;28;20192;-80
2023/10/28 05:38:32;;;;;;;0.70;0.70;;;;;;;;;;5019880;28;20248;-82
2023/10/28 05:40:58;;;;;;;0.70;0.70;;;;;;;;;;5021214;28;20674;-82
2023/10/28 05:43:24;;;;;;;0.70;0.70;;;;;;;;;;5020192;28;20319;-82
2023/10/28 05:45:50;;;;;;;0.70;0.70;;;;;;;;;;5019678;28;20228;-82
2023/10/28 05:48:17;;;;;;;0.60;0.60;;;;;;;;;;5019774;28;20183;-83
2023/10/28 05:50:43;;;;;;;0.60;0.60;;;;;;;;;;5019807;28;20267;-81
2023/10/28 05:53:09;;;;;;;0.60;0.60;;;;;;;;;;5017667;28;20216;-82
2023/10/28 05:55:35;;;;;;;0.50;0.50;;;;;;;;;;5008518;28;20232;-82
2023/10/28 05:58:01;;;;;;;0.60;0.60;;;;;;;;;;5008374;28;20267;-84
2023/10/28 06:00:28;;;;;;;0.60;0.60;;;;;;;;;;5014485;28;20305;-85
2023/10/28 06:02:54;;;;;;;0.50;0.50;;;;;;;;;;5010996;28;20187;-84
2023/10/28 06:05:21;;;;;;;0.60;0.60;;;;;;;;;;5007335;28;20205;-84
2023/10/28 06:07:50;;;;;;;0.53;0.53;;;;;;;;;;5010306;28;20193;-83
2023/10/28 06:10:16;;;;;;;0.60;0.60;;;;;;;;;;5006917;28;20625;-84
2023/10/28 06:12:42;;;;;;;0.70;0.70;;;;;;;;;;5007794;28;20797;-84
2023/10/28 06:15:08;;;;;;;0.60;0.60;;;;;;;;;;5007903;28;20197;-84
2023/10/28 06:17:37;;;;;;;0.60;0.60;;;;;;;;;;5006706;28;20185;-82
2023/10/28 06:20:05;;;;;;;0.60;0.60;;;;;;;;;;5007680;28;20537;-84
2023/10/28 06:22:32;;;;;;;0.60;0.60;;;;;;;;;;5008466;28;20216;-85
2023/10/28 06:24:58;;;;;;;0.70;0.70;;;;;;;;;;5008725;28;20238;-87
2023/10/28 06:27:24;;;;;;;0.70;0.70;;;;;;;;;;5007623;28;20181;-84
2023/10/28 06:29:50;;;;;;;0.60;0.60;;;;;;;;;;5013130;28;20268;-81
2023/10/28 06:32:16;;;;;;;0.57;0.57;;;;;;;;;;5017622;28;20181;-84
2023/10/28 06:34:43;;;;;;;0.50;0.50;;;;;;;;;;5010238;28;20168;-85
2023/10/28 06:37:09;;;;;;;0.60;0.60;;;;;;;;;;5008119;28;20203;-83
2023/10/28 06:39:36;;;;;;;0.50;0.50;;;;;;;;;;5019525;28;20272;-84
2023/10/28 06:42:04;;;;;;;0.60;0.60;;;;;;;;;;5017203;28;20209;-82
2023/10/28 06:44:32;;;;;;;0.70;0.70;;;;;;;;;;5013900;28;20208;-85
2023/10/28 06:46:58;;;;;;;0.53;0.53;;;;;;;;;;5017683;28;20222;-86
2023/10/28 06:49:24;;;;;;;0.60;0.60;;;;;;;;;;5016600;28;20680;-83
2023/10/28 06:51:53;;;;;;;0.67;0.67;;;;;;;;;;5008981;28;20243;-84
2023/10/28 06:54:20;;;;;;;0.67;0.67;;;;;;;;;;5010260;28;20272;-83
2023/10/28 06:56:46;;;;;;;0.67;0.67;;;;;;;;;;5007935;28;20227;-84
2023/10/28 06:59:12;;;;;;;0.70;0.70;;;;;;;;;;5010924;28;20252;-85
2023/10/28 07:01:39;;;;;;;0.60;0.60;;;;;;;;;;5009965;28;20244;-84
2023/10/28 07:04:05;;;;;;;0.60;0.60;;;;;;;;;;5016301;28;20180;-83
2023/10/28 07:06:31;;;;;;;0.50;0.50;;;;;;;;;;5000405;28;20405;-87
2023/10/28 07:08:58;;;;;;;0.67;0.67;;;;;;;;;;5001013;28;20651;-84
2023/10/28 07:11:24;;;;;;;0.50;0.50;;;;;;;;;;5002199;28;20213;-84
2023/10/28 07:13:50;;;;;;;0.50;0.50;;;;;;;;;;5011666;28;20666;-81
2023/10/28 07:16:17;;;;;;;0.53;0.53;;;;;;;;;;5013768;28;20196;-84
2023/10/28 07:18:44;;;;;;;0.50;0.50;;;;;;;;;;5022507;28;20179;-80
2023/10/28 07:21:10;;;;;;;0.57;0.57;;;;;;;;;;5018107;28;20208;-83
2023/10/28 07:23:36;;;;;;;0.50;0.50;;;;;;;;;;5011884;28;20183;-80
2023/10/28 07:26:02;;;;;;;0.53;0.53;;;;;;;;;;5008730;28;20749;-83
2023/10/28 07:28:36;;;;;;;0.50;0.50;;;;;;;;;;5022410;28;20169;-85
2023/10/28 07:31:02;;;;;;;0.60;0.60;;;;;;;;;;5029208;28;20227;-81
2023/10/28 07:33:28;;;;;;;0.50;0.50;;;;;;;;;;5021899;28;20653;-85
2023/10/28 07:35:54;;;;;;;0.50;0.50;;;;;;;;;;5019381;28;20200;-84
2023/10/28 07:38:21;;;;;;;0.50;0.50;;;;;;;;;;5009413;28;20177;-86
2023/10/28 07:40:48;;;;;;;0.50;0.50;;;;;;;;;;5011013;28;20290;-81
2023/10/28 07:43:15;;;;;;;0.50;0.50;;;;;;;;;;5015632;28;20186;-82
2023/10/28 07:45:41;;;;;;;0.40;0.40;;;;;;;;;;5009906;28;20292;-83
2023/10/28 07:48:08;;;;;;;0.37;0.37;;;;;;;;;;5008683;28;20191;-79
2023/10/28 07:50:34;;;;;;;0.47;0.47;;;;;;;;;;5017593;28;20240;-82
2023/10/28 07:53:00;;;;;;;0.30;0.30;;;;;;;;;;5013160;28;20236;-84
2023/10/28 07:55:26;;;;;;;0.33;0.33;;;;;;;;;;5012039;28;20206;-83
2023/10/28 07:57:53;;;;;;;0.40;0.40;;;;;;;;;;5017011;28;20192;-81
2023/10/28 08:00:20;;;;;;;0.30;0.30;;;;;;;;;;5026364;28;20176;-87
2023/10/28 08:02:46;;;;;;;0.43;0.43;;;;;;;;;;5030393;28;20271;-86
2023/10/28 08:05:15;;;;;;;0.40;0.40;;;;;;;;;;5028396;28;20200;-85
2023/10/28 08:07:41;;;;;;;0.40;0.40;;;;;;;;;;5023975;28;20678;-86
2023/10/28 08:10:08;;;;;;;0.40;0.40;;;;;;;;;;5024828;28;20189;-86
2023/10/28 08:12:34;;;;;;;0.50;0.50;;;;;;;;;;5034535;28;20179;-85
2023/10/28 08:15:00;;;;;;;0.40;0.40;;;;;;;;;;5030075;28;20603;-83
2023/10/28 08:17:26;;;;;;;0.50;0.50;;;;;;;;;;5021273;28;20168;-86
2023/10/28 08:19:53;;;;;;;0.40;0.40;;;;;;;;;;5023924;28;20184;-84
2023/10/28 08:22:19;;;;;;;0.40;0.40;;;;;;;;;;5034487;28;20204;-91
2023/10/28 08:24:46;;;;;;;0.40;0.40;;;;;;;;;;5037150;28;20203;-89
2023/10/28 08:27:12;;;;;;;0.40;0.40;;;;;;;;;;5034711;28;20551;-83
2023/10/28 08:29:39;;;;;;;0.30;0.30;;;;;;;;;;5021536;28;20192;-85
2023/10/28 08:32:05;;;;;;;0.40;0.40;;;;;;;;;;5020421;28;20234;-83
2023/10/28 08:34:32;;;;;;;0.40;0.40;;;;;;;;;;5020151;28;20185;-83
2023/10/28 08:37:00;;;;;;;0.40;0.40;;;;;;;;;;5020148;28;20247;-84
2023/10/28 08:39:26;;;;;;;0.40;0.40;;;;;;;;;;5001217;28;20184;-85
2023/10/28 08:41:54;;;;;;;0.50;0.50;;;;;;;;;;5000510;28;20589;-84
2023/10/28 08:44:27;;;;;;;0.40;0.40;;;;;;;;;;5000311;28;20283;-85
2023/10/28 08:46:54;;;;;;;0.53;0.53;;;;;;;;;;5000008;28;20197;-85
2023/10/28 08:49:22;;;;;;;0.40;0.40;;;;;;;;;;5016616;28;20181;-85
2023/10/28 08:51:49;;;;;;;0.40;0.40;;;;;;;;;;5011599;28;20189;-84
2023/10/28 08:54:17;;;;;;;0.40;0.40;;;;;;;;;;4999169;28;20177;-82
2023/10/28 08:56:44;;;;;;;0.40;0.40;;;;;;;;;;5010749;28;20197;-87
2023/10/28 08:59:10;;;;;;;0.40;0.40;;;;;;;;;;5007736;28;20209;-85
2023/10/28 09:01:37;;;;;;;0.30;0.30;;;;;;;;;;5007059;28;20219;-85
2023/10/28 09:04:06;;;;;;;0.43;0.43;;;;;;;;;;5009611;28;20181;-85
2023/10/28 09:06:32;;;;;;;0.40;0.40;;;;;;;;;;5021338;28;20235;-85
2023/10/28 09:08:58;;;;;;;0.53;0.53;;;;;;;;;;5024183;28;20204;-84
2023/10/28 09:11:25;;;;;;;0.30;0.30;;;;;;;;;;5021590;28;20215;-85
2023/10/28 09:13:51;;;;;;;0.30;0.30;;;;;;;;;;5022679;28;20187;-83
2023/10/28 09:16:17;;;;;;;0.40;0.40;;;;;;;;;;5026241;28;20216;-86
2023/10/28 09:18:44;;;;;;;0.40;0.40;;;;;;;;;;5015532;28;20192;-83
2023/10/28 09:21:13;;;;;;;0.33;0.33;;;;;;;;;;5020121;28;20639;-85
2023/10/28 09:23:39;;;;;;;0.37;0.37;;;;;;;;;;5009309;28;20189;-85
2023/10/28 09:26:11;;;;;;;0.43;0.43;;;;;;;;;;5010109;28;20259;-84
2023/10/28 09:28:43;;;;;;;0.40;0.40;;;;;;;;;;5010964;28;20169;-85
2023/10/28 09:31:33;;;;;;;0.40;0.40;;;;;;;;;;5019189;28;20220;-86
2023/10/28 09:34:02;;;;;;;0.30;0.30;;;;;;;;;;5019282;28;20205;-84
2023/10/28 09:36:33;;;;;;;0.43;0.43;;;;;;;;;;5028605;28;20216;-84
2023/10/28 09:39:02;;;;;;;0.40;0.40;;;;;;;;;;5042866;28;20184;-84
2023/10/28 09:41:30;;;;;;;0.40;0.40;;;;;;;;;;5029247;28;20216;-84
2023/10/28 09:44:05;;;;;;;0.40;0.40;;;;;;;;;;5030489;28;20195;-86
2023/10/28 09:46:36;;;;;;;0.60;0.60;;;;;;;;;;5032031;28;20287;-83
2023/10/28 09:49:07;;;;;;;0.50;0.50;;;;;;;;;;5030558;28;20189;-85
2023/10/28 09:51:33;;;;;;;0.40;0.40;;;;;;;;;;5032470;28;20239;-85
2023/10/28 09:54:00;;;;;;;0.50;0.50;;;;;;;;;;5018014;28;20185;-86
2023/10/28 09:56:32;;;;;;;0.50;0.50;;;;;;;;;;5022855;28;20292;-87
2023/10/28 09:59:03;;;;;;;0.50;0.50;;;;;;;;;;5030133;28;20683;-86
2023/10/28 10:01:37;;;;;;;0.50;0.50;;;;;;;;;;5024212;28;20208;-84
2023/10/28 10:04:04;;;;;;;0.57;0.57;;;;;;;;;;5023656;28;20236;-86
2023/10/28 10:06:30;;;;;;;0.50;0.50;;;;;;;;;;5012318;28;20189;-87
2023/10/28 10:09:00;;;;;;;0.50;0.50;;;;;;;;;;5013308;28;20209;-85
2023/10/28 10:11:27;;;;;;;0.47;0.47;;;;;;;;;;5013122;28;20173;-80
2023/10/28 10:13:56;;;;;;;0.50;0.50;;;;;;;;;;5008094;28;20189;-85
2023/10/28 10:16:32;;;;;;;0.60;0.60;;;;;;;;;;5005065;28;20196;-84
2023/10/28 10:18:58;;;;;;;0.50;0.50;;;;;;;;;;5004645;28;20209;-83
2023/10/28 10:21:29;;;;;;;0.50;0.50;;;;;;;;;;5005229;28;20196;-85
2023/10/28 10:23:55;;;;;;;0.50;0.50;;;;;;;;;;5014187;28;20188;-84
2023/10/28 10:26:29;;;;;;;0.50;0.50;;;;;;;;;;5003656;28;20197;-84
2023/10/28 10:28:58;;;;;;;0.50;0.50;;;;;;;;;;5016986;28;20185;-84
2023/10/28 10:31:27;;;;;;;0.67;0.67;;;;;;;;;;5003873;28;20192;-84
2023/10/28 10:34:05;;;;;;;0.47;0.47;;;;;;;;;;5003011;28;20268;-83
2023/10/28 10:36:35;;;;;;;0.53;0.53;;;;;;;;;;5002035;28;20208;-83
2023/10/28 10:39:28;;;;;;;0.57;0.57;;;;;;;;;;5002923;28;20188;-84
2023/10/28 10:41:55;;;;;;;0.57;0.57;;;;;;;;;;5002436;28;20275;-82
2023/10/28 10:44:21;;;;;;;0.60;0.60;;;;;;;;;;5013923;28;20220;-81
2023/10/28 10:46:48;;;;;;;0.50;0.50;;;;;;;;;;5014964;28;20260;-81
2023/10/28 10:49:14;;;;;;;0.53;0.53;;;;;;;;;;5005760;28;20655;-83
2023/10/28 10:51:43;;;;;;;0.50;0.50;;;;;;;;;;5000073;28;20245;-81
2023/10/28 10:54:09;;;;;;;0.60;0.60;;;;;;;;;;5000661;28;20660;-83
2023/10/28 10:56:36;;;;;;;0.50;0.50;;;;;;;;;;5000047;28;20212;-83
2023/10/28 10:59:02;;;;;;;0.43;0.43;;;;;;;;;;5001088;28;20178;-82
2023/10/28 11:01:29;;;;;;;0.50;0.50;;;;;;;;;;5002316;28;20280;-85
2023/10/28 11:03:57;;;;;;;0.40;0.40;;;;;;;;;;5010407;28;20177;-85
2023/10/28 11:06:23;;;;;;;0.57;0.57;;;;;;;;;;5001280;28;20212;-85
2023/10/28 11:08:50;;;;;;;0.50;0.50;;;;;;;;;;5004206;28;20185;-86
2023/10/28 11:11:16;;;;;;;0.40;0.40;;;;;;;;;;5007066;28;20169;-83
2023/10/28 11:13:43;;;;;;;0.40;0.40;;;;;;;;;;5002402;28;20180;-84
2023/10/28 11:16:22;;;;;;;0.53;0.53;;;;;;;;;;5001248;28;20197;-84
2023/10/28 11:18:49;;;;;;;0.40;0.40;;;;;;;;;;5001263;28;20188;-83
2023/10/28 11:21:15;;;;;;;0.40;0.40;;;;;;;;;;4999985;28;20299;-85
2023/10/28 11:23:41;;;;;;;0.50;0.50;;;;;;;;;;5002445;28;20212;-83
2023/10/28 11:26:08;;;;;;;0.50;0.50;;;;;;;;;;5000577;28;20209;-86
2023/10/28 11:28:38;;;;;;;0.53;0.53;;;;;;;;;;4999625;28;20177;-85
2023/10/28 11:31:04;;;;;;;0.57;0.57;;;;;;;;;;5002409;28;20659;-83
2023/10/28 11:33:30;;;;;;;0.50;0.50;;;;;;;;;;5001632;28;20231;-84
2023/10/28 11:35:57;;;;;;;0.50;0.50;;;;;;;;;;5009520;28;20181;-89
2023/10/28 11:38:23;;;;;;;0.50;0.50;;;;;;;;;;5005454;28;20280;-87
2023/10/28 11:41:01;;;;;;;0.50;0.50;;;;;;;;;;5001859;28;20248;-84
2023/10/28 11:43:29;;;;;;;0.60;0.60;;;;;;;;;;5000888;28;20177;-85
2023/10/28 11:45:54;;;;;;;0.40;0.40;;;;;;;;;;4999625;28;20208;-84
2023/10/28 11:48:21;;;;;;;0.40;0.40;;;;;;;;;;5008820;28;20176;-82
2023/10/28 11:50:47;;;;;;;0.50;0.50;;;;;;;;;;5021605;28;20184;-83
2023/10/28 11:53:17;;;;;;;0.60;0.60;;;;;;;;;;5030850;28;20239;-82
2023/10/28 11:55:45;;;;;;;0.50;0.50;;;;;;;;;;5032740;28;20227;-82
2023/10/28 11:58:11;;;;;;;0.40;0.40;;;;;;;;;;5034474;28;20169;-86
2023/10/28 12:00:37;;;;;;;0.40;0.40;;;;;;;;;;5020205;28;20176;-85
2023/10/28 12:03:07;;;;;;;0.50;0.50;;;;;;;;;;5016220;28;20267;-83
2023/10/28 12:05:34;;;;;;;0.53;0.53;;;;;;;;;;5018460;28;20196;-86
2023/10/28 12:08:00;;;;;;;0.57;0.57;;;;;;;;;;5020124;28;20196;-82
2023/10/28 12:10:26;;;;;;;0.50;0.50;;;;;;;;;;5007222;28;20181;-84
2023/10/28 12:12:54;;;;;;;0.57;0.57;;;;;;;;;;5024365;28;20212;-85
2023/10/28 12:15:20;;;;;;;0.40;0.40;;;;;;;;;;5024814;28;20201;-84
2023/10/28 12:17:47;;;;;;;0.40;0.40;;;;;;;;;;5023239;28;20177;-82
2023/10/28 12:20:15;;;;;;;0.40;0.40;;;;;;;;;;5024062;28;20172;-84
2023/10/28 12:22:41;;;;;;;0.50;0.50;;;;;;;;;;5020037;28;20243;-85
2023/10/28 12:25:11;;;;;;;0.50;0.50;;;;;;;;;;5019855;28;20198;-84
2023/10/28 12:27:37;;;;;;;0.50;0.50;;;;;;;;;;5017313;28;20597;-85
2023/10/28 12:30:06;;;;;;;0.50;0.50;;;;;;;;;;5015007;28;20173;-84
2023/10/28 12:32:32;;;;;;;0.40;0.40;;;;;;;;;;5022393;28;20164;-86
2023/10/28 12:34:58;;;;;;;0.50;0.50;;;;;;;;;;5012122;28;20197;-86
2023/10/28 12:37:25;;;;;;;0.40;0.40;;;;;;;;;;4999679;28;20188;-84
2023/10/28 12:39:51;;;;;;;0.40;0.40;;;;;;;;;;4998050;28;20228;-83
2023/10/28 12:42:17;;;;;;;0.50;0.50;;;;;;;;;;4997920;28;20201;-87
2023/10/28 12:44:43;;;;;;;0.43;0.43;;;;;;;;;;5016020;28;20189;-83
2023/10/28 12:47:09;;;;;;;0.60;0.60;;;;;;;;;;5015411;28;20212;-85
2023/10/28 12:49:36;;;;;;;0.50;0.50;;;;;;;;;;5015483;28;20168;-82
2023/10/28 12:52:02;;;;;;;0.50;0.50;;;;;;;;;;5014334;28;20184;-85
2023/10/28 12:54:28;;;;;;;0.50;0.50;;;;;;;;;;5012227;28;20161;-85
2023/10/28 12:56:55;;;;;;;0.50;0.50;;;;;;;;;;5013711;28;20193;-85
2023/10/28 12:59:21;;;;;;;0.50;0.50;;;;;;;;;;5006718;28;20181;-86
2023/10/28 13:01:48;;;;;;;0.50;0.50;;;;;;;;;;5017015;28;20209;-86
2023/10/28 13:04:16;;;;;;;0.50;0.50;;;;;;;;;;5016808;28;20169;-86
2023/10/28 13:06:42;;;;;;;0.50;0.50;;;;;;;;;;5010794;28;20221;-85
2023/10/28 13:09:12;;;;;;;0.50;0.50;;;;;;;;;;5000596;28;20188;-83
2023/10/28 13:11:41;;;;;;;0.50;0.50;;;;;;;;;;5000254;28;20177;-84
2023/10/28 13:14:07;;;;;;;0.53;0.53;;;;;;;;;;4999209;28;20177;-87
2023/10/28 13:16:37;;;;;;;0.40;0.40;;;;;;;;;;4999475;28;20204;-87
2023/10/28 13:19:04;;;;;;;0.50;0.50;;;;;;;;;;5001369;28;20188;-84
2023/10/28 13:21:30;;;;;;;0.60;0.60;;;;;;;;;;5001286;28;20207;-87
2023/10/28 13:23:59;;;;;;;0.50;0.50;;;;;;;;;;5000602;28;20188;-85
2023/10/28 13:26:25;;;;;;;0.40;0.40;;;;;;;;;;5012009;28;20264;-83
2023/10/28 13:28:53;;;;;;;0.40;0.40;;;;;;;;;;5021878;28;20199;-84
2023/10/28 13:31:19;;;;;;;0.40;0.40;;;;;;;;;;5006602;28;20177;-85
2023/10/28 13:33:45;;;;;;;0.60;0.60;;;;;;;;;;5003533;28;20182;-85
2023/10/28 13:36:11;;;;;;;0.50;0.50;;;;;;;;;;5011480;28;20193;-87
2023/10/28 13:38:38;;;;;;;0.50;0.50;;;;;;;;;;5015824;28;20173;-85
2023/10/28 13:41:04;;;;;;;0.47;0.47;;;;;;;;;;5008631;28;20213;-84
2023/10/28 13:43:30;;;;;;;0.50;0.50;;;;;;;;;;5004074;28;20197;-84
2023/10/28 13:46:05;;;;;;;0.50;0.50;;;;;;;;;;5005631;28;20360;-85
2023/10/28 13:48:32;;;;;;;0.50;0.50;;;;;;;;;;5008591;28;20542;-86
2023/10/28 13:50:59;;;;;;;0.60;0.60;;;;;;;;;;5005782;28;20196;-84
2023/10/28 13:53:25;;;;;;;0.60;0.60;;;;;;;;;;5015536;28;20200;-85
2023/10/28 13:55:51;;;;;;;0.40;0.40;;;;;;;;;;5005346;28;20343;-85
2023/10/28 13:58:17;;;;;;;0.50;0.50;;;;;;;;;;5001012;28;20257;-85
2023/10/28 14:00:44;;;;;;;0.40;0.40;;;;;;;;;;5005255;28;20181;-85
2023/10/28 14:03:12;;;;;;;0.50;0.50;;;;;;;;;;5007454;28;20177;-82
2023/10/28 14:05:38;;;;;;;0.50;0.50;;;;;;;;;;5004981;28;20205;-83
2023/10/28 14:08:04;;;;;;;0.40;0.40;;;;;;;;;;5007363;28;20189;-84
2023/10/28 14:10:31;;;;;;;0.60;0.60;;;;;;;;;;5011639;28;20193;-84
2023/10/28 14:12:57;;;;;;;0.40;0.40;;;;;;;;;;5023599;28;20196;-84
2023/10/28 14:15:24;;;;;;;0.60;0.60;;;;;;;;;;5003653;28;20197;-84
2023/10/28 14:17:52;;;;;;;0.60;0.60;;;;;;;;;;5007250;28;20185;-86
2023/10/28 14:20:19;;;;;;;0.50;0.50;;;;;;;;;;5011472;28;20201;-85
2023/10/28 14:22:45;;;;;;;0.60;0.60;;;;;;;;;;5007107;28;20240;-85
2023/10/28 14:25:11;;;;;;;0.53;0.53;;;;;;;;;;5004002;28;20196;-85
2023/10/28 14:27:37;;;;;;;0.50;0.50;;;;;;;;;;5001337;28;20227;-83
2023/10/28 14:30:07;;;;;;;0.40;0.40;;;;;;;;;;5002425;28;20180;-82
2023/10/28 14:32:35;;;;;;;0.40;0.40;;;;;;;;;;5000911;28;20188;-83
2023/10/28 14:35:03;;;;;;;0.60;0.60;;;;;;;;;;4999020;28;20205;-84
2023/10/28 14:37:29;;;;;;;0.40;0.40;;;;;;;;;;5008653;28;20284;-82
2023/10/28 14:39:55;;;;;;;0.60;0.60;;;;;;;;;;5010686;28;20177;-83
2023/10/28 14:42:22;;;;;;;0.40;0.40;;;;;;;;;;5008920;28;20216;-85